createdAt,value
2019-04-22T00:00:51.429Z,6.11
2019-04-22T00:02:59.811Z,6.11
2019-04-22T00:05:16.391Z,6.12
2019-04-22T00:07:36.203Z,6.10
2019-04-22T00:09:55.670Z,6.11
2019-04-22T00:12:02.185Z,6.12
2019-04-22T00:14:08.498Z,6.13
2019-04-22T00:16:14.308Z,6.09
2019-04-22T00:18:40.552Z,6.06
2019-04-22T00:20:35.536Z,6.03
2019-04-22T00:22:38.061Z,5.98
2019-04-22T00:24:56.211Z,5.95
2019-04-22T00:26:58.495Z,5.96
2019-04-22T00:29:26.985Z,5.95
2019-04-22T00:31:20.892Z,5.94
2019-04-22T00:33:26.549Z,5.91
2019-04-22T00:35:36.672Z,5.88
2019-04-22T00:37:53.731Z,5.86
2019-04-22T00:40:14.373Z,5.84
2019-04-22T00:42:04.579Z,5.85
2019-04-22T00:44:23.710Z,5.83
2019-04-22T00:46:18.190Z,5.78
2019-04-22T00:48:35.952Z,5.74
2019-04-22T00:50:37.212Z,5.71
2019-04-22T00:52:49.037Z,5.74
2019-04-22T00:55:04.207Z,5.72
2019-04-22T00:57:01.160Z,5.71
2019-04-22T00:59:08.436Z,5.70
2019-04-22T01:03:35.517Z,5.77
2019-04-22T01:05:42.242Z,5.76
2019-04-22T01:07:49.179Z,5.74
2019-04-22T01:09:58.964Z,5.71
2019-04-22T01:12:07.548Z,5.70
2019-04-22T01:14:13.146Z,5.68
2019-04-22T01:16:22.686Z,5.73
2019-04-22T01:18:31.091Z,5.70
2019-04-22T01:22:48.978Z,5.75
2019-04-22T01:24:50.109Z,5.71
2019-04-22T01:26:53.793Z,5.71
2019-04-22T01:29:02.028Z,5.72
2019-04-22T01:31:04.719Z,5.73
2019-04-22T01:33:17.336Z,5.72
2019-04-22T01:35:28.681Z,5.70
2019-04-22T01:37:43.285Z,5.67
2019-04-22T01:40:00.989Z,5.64
2019-04-22T01:42:05.453Z,5.61
2019-04-22T01:44:21.590Z,5.55
2019-04-22T01:46:25.761Z,5.51
2019-04-22T01:48:39.383Z,5.48
2019-04-22T01:50:48.527Z,5.45
2019-04-22T01:52:59.020Z,5.45
2019-04-22T01:57:16.055Z,5.38
2019-04-22T01:59:18.249Z,5.36
2019-04-22T02:01:30.747Z,5.34
2019-04-22T02:03:43.151Z,5.33
2019-04-22T02:05:44.019Z,5.29
2019-04-22T02:07:57.973Z,5.24
2019-04-22T02:10:03.964Z,5.21
2019-04-22T02:12:17.298Z,5.21
2019-04-22T02:14:27.225Z,5.17
2019-04-22T02:16:34.239Z,5.17
2019-04-22T02:18:38.224Z,5.16
2019-04-22T02:20:42.925Z,5.14
2019-04-22T02:23:45.780Z,5.10
2019-04-22T02:25:41.207Z,5.05
2019-04-22T02:27:47.140Z,5.00
2019-04-22T02:29:51.878Z,4.98
2019-04-22T02:34:13.846Z,4.94
2019-04-22T02:38:44.634Z,4.93
2019-04-22T02:40:58.766Z,4.90
2019-04-22T02:42:43.665Z,4.87
2019-04-22T02:47:11.837Z,4.76
2019-04-22T02:51:22.699Z,4.72
2019-04-22T02:54:12.026Z,4.70
2019-04-22T02:55:55.285Z,4.66
2019-04-22T03:02:03.128Z,4.60
2019-04-22T03:06:30.803Z,4.55
2019-04-22T03:10:56.674Z,4.45
2019-04-22T03:12:52.178Z,4.42
2019-04-22T03:17:08.681Z,4.35
2019-04-22T03:23:47.240Z,4.32
2019-04-22T03:26:06.469Z,4.30
2019-04-22T03:27:46.493Z,4.30
2019-04-22T03:30:41.559Z,4.31
2019-04-22T03:32:52.481Z,4.32
2019-04-22T03:35:19.139Z,4.33
2019-04-22T03:39:06.128Z,4.36
2019-04-22T03:49:41.078Z,4.42
2019-04-22T03:51:46.527Z,4.46
2019-04-22T03:53:55.938Z,4.49
2019-04-22T03:55:59.689Z,4.57
2019-04-22T03:58:11.226Z,4.63
2019-04-22T04:00:19.883Z,4.70
2019-04-22T04:02:28.958Z,4.80
2019-04-22T04:06:50.551Z,5.11
2019-04-22T04:08:39.079Z,5.47
2019-04-22T04:10:53.198Z,5.89
2019-04-22T04:15:23.682Z,7.38
2019-04-22T04:24:03.328Z,10.17
2019-04-22T04:26:30.735Z,9.34
2019-04-22T04:30:14.886Z,7.39
2019-04-22T04:34:43.819Z,6.58
2019-04-22T04:36:42.236Z,6.39
2019-04-22T04:41:03.681Z,6.20
2019-04-22T04:43:00.608Z,6.18
2019-04-22T04:47:39.034Z,6.18
2019-04-22T04:49:34.863Z,6.25
2019-04-22T04:53:41.407Z,6.37
2019-04-22T04:55:59.741Z,6.47
2019-04-22T05:02:22.577Z,6.81
2019-04-22T05:04:41.363Z,6.77
2019-04-22T05:09:03.789Z,6.70
2019-04-22T05:11:10.970Z,6.71
2019-04-22T05:13:10.417Z,6.71
2019-04-22T05:17:18.472Z,6.91
2019-04-22T05:19:20.234Z,7.03
2019-04-22T05:21:21.812Z,7.07
2019-04-22T05:23:39.411Z,7.26
2019-04-22T05:25:40.407Z,7.39
2019-04-22T05:28:07.620Z,7.42
2019-04-22T05:32:12.030Z,7.35
2019-04-22T05:34:25.416Z,7.36
2019-04-22T05:36:29.626Z,7.57
2019-04-22T05:38:41.284Z,7.74
2019-04-22T05:40:36.829Z,7.73
2019-04-22T05:42:51.496Z,7.70
2019-04-22T05:45:04.695Z,7.67
2019-04-22T05:47:08.075Z,7.66
2019-04-22T05:49:18.212Z,7.79
2019-04-22T05:51:29.555Z,7.95
2019-04-22T05:53:34.197Z,7.99
2019-04-22T05:55:41.975Z,7.98
2019-04-22T05:57:51.880Z,8.09
2019-04-22T05:59:59.476Z,8.12
2019-04-22T06:02:15.584Z,8.16
2019-04-22T06:04:19.839Z,8.29
2019-04-22T06:06:22.750Z,8.23
2019-04-22T06:08:29.292Z,8.28
2019-04-22T06:12:42.993Z,8.43
2019-04-22T06:14:58.241Z,8.57
2019-04-22T06:17:18.254Z,8.75
2019-04-22T06:19:21.489Z,8.79
2019-04-22T06:21:35.761Z,8.86
2019-04-22T06:23:46.908Z,8.88
2019-04-22T06:26:04.900Z,9.02
2019-04-22T06:28:04.911Z,9.14
2019-04-22T06:30:09.678Z,9.20
2019-04-22T06:32:27.757Z,9.39
2019-04-22T06:36:38.257Z,9.75
2019-04-22T06:38:40.398Z,9.90
2019-04-22T06:41:02.813Z,9.95
2019-04-22T06:43:06.163Z,10.20
2019-04-22T06:45:17.436Z,10.34
2019-04-22T06:47:27.364Z,10.24
2019-04-22T06:51:32.459Z,10.00
2019-04-22T06:53:40.495Z,10.05
2019-04-22T06:55:48.157Z,10.00
2019-04-22T06:57:59.915Z,10.12
2019-04-22T07:00:07.120Z,10.18
2019-04-22T07:02:16.672Z,10.23
2019-04-22T07:04:16.617Z,10.45
2019-04-22T07:10:49.125Z,10.71
2019-04-22T07:12:53.994Z,10.69
2019-04-22T07:15:01.653Z,10.32
2019-04-22T07:17:15.419Z,10.18
2019-04-22T07:19:26.530Z,10.29
2019-04-22T07:21:25.770Z,10.25
2019-04-22T07:27:55.134Z,11.02
2019-04-22T07:30:08.603Z,10.95
2019-04-22T07:32:40.003Z,11.03
2019-04-22T07:34:25.305Z,10.99
2019-04-22T07:38:29.821Z,11.10
2019-04-22T07:40:43.817Z,10.96
2019-04-22T07:42:49.367Z,10.79
2019-04-22T07:45:05.056Z,10.78
2019-04-22T07:47:17.429Z,10.81
2019-04-22T07:49:20.316Z,10.82
2019-04-22T07:51:20.221Z,10.93
2019-04-22T07:53:27.814Z,11.02
2019-04-22T07:55:43.414Z,11.03
2019-04-22T07:57:52.017Z,10.96
2019-04-22T08:02:04.484Z,11.19
2019-04-22T08:10:46.793Z,11.88
2019-04-22T08:12:45.683Z,11.84
2019-04-22T08:14:52.163Z,12.06
2019-04-22T08:17:13.601Z,12.18
2019-04-22T08:19:18.264Z,12.13
2019-04-22T08:21:15.296Z,12.29
2019-04-22T08:23:31.653Z,12.41
2019-04-22T08:25:44.248Z,12.64
2019-04-22T08:27:50.524Z,12.78
2019-04-22T08:32:11.142Z,12.68
2019-04-22T08:34:33.586Z,12.64
2019-04-22T08:36:58.913Z,12.67
2019-04-22T08:38:55.845Z,12.49
2019-04-22T08:41:28.351Z,12.43
2019-04-22T08:43:39.192Z,12.43
2019-04-22T08:45:43.054Z,12.66
2019-04-22T08:47:41.945Z,12.72
2019-04-22T08:50:16.373Z,12.73
2019-04-22T08:52:01.302Z,12.64
2019-04-22T08:54:24.081Z,12.59
2019-04-22T08:58:27.387Z,12.80
2019-04-22T09:00:37.513Z,12.72
2019-04-22T09:02:46.678Z,12.86
2019-04-22T09:04:49.405Z,13.16
2019-04-22T09:09:09.743Z,13.53
2019-04-22T09:11:20.344Z,13.61
2019-04-22T09:13:31.876Z,13.51
2019-04-22T09:15:34.585Z,13.49
2019-04-22T09:17:47.254Z,13.38
2019-04-22T09:19:56.030Z,13.29
2019-04-22T09:22:00.564Z,13.23
2019-04-22T09:24:10.296Z,13.29
2019-04-22T09:26:18.198Z,13.48
2019-04-22T09:28:24.560Z,13.79
2019-04-22T09:32:52.387Z,14.05
2019-04-22T09:34:51.350Z,14.29
2019-04-22T09:37:07.936Z,14.41
2019-04-22T09:39:11.596Z,14.62
2019-04-22T09:41:14.145Z,14.72
2019-04-22T09:43:28.688Z,15.06
2019-04-22T09:45:42.759Z,15.18
2019-04-22T09:47:55.607Z,15.53
2019-04-22T09:52:06.299Z,16.00
2019-04-22T09:56:23.980Z,15.91
2019-04-22T09:58:32.058Z,15.64
2019-04-22T10:01:12.415Z,15.60
2019-04-22T10:03:16.753Z,15.79
2019-04-22T10:05:28.821Z,16.04
2019-04-22T10:07:52.482Z,16.14
2019-04-22T10:11:56.427Z,16.23
2019-04-22T10:14:05.770Z,16.23
2019-04-22T10:16:17.326Z,15.90
2019-04-22T10:18:19.309Z,15.88
2019-04-22T10:20:36.391Z,15.86
2019-04-22T10:22:39.942Z,15.92
2019-04-22T10:24:44.635Z,16.18
2019-04-22T10:26:55.252Z,16.61
2019-04-22T10:29:06.544Z,16.79
2019-04-22T10:31:11.474Z,16.81
2019-04-22T10:33:14.909Z,16.80
2019-04-22T10:35:12.254Z,16.99
2019-04-22T10:37:20.433Z,17.19
2019-04-22T10:39:37.848Z,17.23
2019-04-22T10:41:36.630Z,17.31
2019-04-22T10:43:43.333Z,17.31
2019-04-22T10:45:50.343Z,17.19
2019-04-22T10:47:58.266Z,17.15
2019-04-22T10:50:10.104Z,17.17
2019-04-22T10:52:18.206Z,17.15
2019-04-22T10:54:25.393Z,17.02
2019-04-22T10:56:32.777Z,16.93
2019-04-22T10:58:40.423Z,16.67
2019-04-22T11:00:49.886Z,16.54
2019-04-22T11:05:10.303Z,16.68
2019-04-22T11:07:18.867Z,16.75
2019-04-22T11:09:25.316Z,16.89
2019-04-22T11:11:42.350Z,17.08
2019-04-22T11:13:42.036Z,17.14
2019-04-22T11:15:50.580Z,17.44
2019-04-22T11:17:57.742Z,17.51
2019-04-22T11:20:05.840Z,17.34
2019-04-22T11:22:20.664Z,17.27
2019-04-22T11:24:22.946Z,17.45
2019-04-22T11:26:29.936Z,17.98
2019-04-22T11:28:38.092Z,18.17
2019-04-22T11:30:44.805Z,18.10
2019-04-22T11:32:51.017Z,18.28
2019-04-22T11:34:58.059Z,18.10
2019-04-22T11:37:05.262Z,17.92
2019-04-22T11:39:13.674Z,17.72
2019-04-22T11:41:19.799Z,17.73
2019-04-22T11:43:28.347Z,17.87
2019-04-22T11:45:37.382Z,18.06
2019-04-22T11:47:45.429Z,18.26
2019-04-22T11:49:54.509Z,18.55
2019-04-22T11:52:01.037Z,18.83
2019-04-22T11:54:07.676Z,18.71
2019-04-22T11:56:20.823Z,18.61
2019-04-22T11:58:28.678Z,18.58
2019-04-22T12:00:37.008Z,18.76
2019-04-22T12:02:44.815Z,18.57
2019-04-22T12:04:51.945Z,18.17
2019-04-22T12:07:00.012Z,18.03
2019-04-22T12:09:12.312Z,18.02
2019-04-22T12:11:18.743Z,18.26
2019-04-22T12:13:26.183Z,18.48
2019-04-22T12:15:32.976Z,18.70
2019-04-22T12:17:40.452Z,18.71
2019-04-22T12:19:48.221Z,18.85
2019-04-22T12:21:55.159Z,18.88
2019-04-22T12:24:03.347Z,18.89
2019-04-22T12:26:16.174Z,19.16
2019-04-22T12:28:19.140Z,19.04
2019-04-22T12:30:27.933Z,19.17
2019-04-22T12:32:35.691Z,19.20
2019-04-22T12:34:43.362Z,19.22
2019-04-22T12:36:51.082Z,19.11
2019-04-22T12:38:57.804Z,18.87
2019-04-22T12:41:08.149Z,18.85
2019-04-22T12:43:14.359Z,18.86
2019-04-22T12:45:22.424Z,18.79
2019-04-22T12:47:30.445Z,18.59
2019-04-22T12:49:40.477Z,18.38
2019-04-22T12:51:45.354Z,18.10
2019-04-22T12:53:52.857Z,18.12
2019-04-22T12:56:01.288Z,18.08
2019-04-22T12:58:09.619Z,18.17
2019-04-22T13:00:18.414Z,17.98
2019-04-22T13:02:25.314Z,18.01
2019-04-22T13:04:32.258Z,18.28
2019-04-22T13:06:39.892Z,18.47
2019-04-22T13:08:47.553Z,18.44
2019-04-22T13:11:02.245Z,18.46
2019-04-22T13:13:02.812Z,18.54
2019-04-22T13:15:16.050Z,18.81
2019-04-22T13:17:23.057Z,18.82
2019-04-22T13:19:30.294Z,19.02
2019-04-22T13:21:38.422Z,19.13
2019-04-22T13:23:46.553Z,18.86
2019-04-22T13:25:52.944Z,18.52
2019-04-22T13:28:00.886Z,18.43
2019-04-22T13:30:12.508Z,18.47
2019-04-22T13:32:20.614Z,18.56
2019-04-22T13:34:34.813Z,18.66
2019-04-22T13:36:36.345Z,18.87
2019-04-22T13:38:43.076Z,19.10
2019-04-22T13:41:02.430Z,19.25
2019-04-22T13:42:58.690Z,19.20
2019-04-22T13:45:09.725Z,19.12
2019-04-22T13:47:34.639Z,19.10
2019-04-22T13:49:59.350Z,19.04
2019-04-22T13:54:36.302Z,18.91
2019-04-22T13:56:24.882Z,19.07
2019-04-22T13:58:14.069Z,19.07
2019-04-22T14:00:18.520Z,19.04
2019-04-22T14:02:28.498Z,19.00
2019-04-22T14:04:36.888Z,18.67
2019-04-22T14:06:44.539Z,18.63
2019-04-22T14:08:51.558Z,18.58
2019-04-22T14:11:13.200Z,18.34
2019-04-22T14:13:06.078Z,18.04
2019-04-22T14:15:15.804Z,17.83
2019-04-22T14:17:22.960Z,17.86
2019-04-22T14:19:29.899Z,17.99
2019-04-22T14:21:36.798Z,18.15
2019-04-22T14:23:44.658Z,18.30
2019-04-22T14:25:52.589Z,18.36
2019-04-22T14:28:05.537Z,18.47
2019-04-22T14:30:10.726Z,18.59
2019-04-22T14:32:21.808Z,18.59
2019-04-22T14:34:26.584Z,18.51
2019-04-22T14:36:33.116Z,18.77
2019-04-22T14:38:39.886Z,19.00
2019-04-22T14:40:48.181Z,19.24
2019-04-22T14:43:17.468Z,19.36
2019-04-22T14:45:30.396Z,19.25
2019-04-22T14:47:31.442Z,19.10
2019-04-22T14:49:42.135Z,18.86
2019-04-22T14:51:53.442Z,18.57
2019-04-22T14:53:56.700Z,18.49
2019-04-22T14:55:50.360Z,18.33
2019-04-22T14:58:02.867Z,18.22
2019-04-22T15:00:17.930Z,18.20
2019-04-22T15:02:28.171Z,18.31
2019-04-22T15:04:39.297Z,18.42
2019-04-22T15:06:54.733Z,18.31
2019-04-22T15:09:05.858Z,18.30
2019-04-22T15:11:19.295Z,18.44
2019-04-22T15:13:29.404Z,18.62
2019-04-22T15:15:49.799Z,18.70
2019-04-22T15:18:00.950Z,18.84
2019-04-22T15:20:14.043Z,18.87
2019-04-22T15:22:26.512Z,19.09
2019-04-22T15:24:34.611Z,18.97
2019-04-22T15:26:42.554Z,18.84
2019-04-22T15:28:49.397Z,18.52
2019-04-22T15:30:57.768Z,18.23
2019-04-22T15:33:05.524Z,17.98
2019-04-22T15:35:15.505Z,17.83
2019-04-22T15:37:24.339Z,17.74
2019-04-22T15:39:31.461Z,17.49
2019-04-22T15:41:38.849Z,17.42
2019-04-22T15:43:47.759Z,17.41
2019-04-22T15:45:58.702Z,17.50
2019-04-22T15:48:06.136Z,17.65
2019-04-22T15:50:14.198Z,17.74
2019-04-22T15:52:28.200Z,17.80
2019-04-22T15:54:29.827Z,17.90
2019-04-22T15:56:39.029Z,17.95
2019-04-22T15:58:47.874Z,17.92
2019-04-22T16:01:06.204Z,17.94
2019-04-22T16:03:08.016Z,17.99
2019-04-22T16:05:12.777Z,17.97
2019-04-22T16:07:22.397Z,17.95
2019-04-22T16:09:28.893Z,18.03
2019-04-22T16:11:38.070Z,18.08
2019-04-22T16:13:46.362Z,18.11
2019-04-22T16:15:54.286Z,17.95
2019-04-22T16:18:05.264Z,17.88
2019-04-22T16:20:13.319Z,18.02
2019-04-22T16:22:23.118Z,18.14
2019-04-22T16:24:42.385Z,18.09
2019-04-22T16:26:50.593Z,18.04
2019-04-22T16:28:59.668Z,17.61
2019-04-22T16:31:09.075Z,17.49
2019-04-22T16:33:17.553Z,17.57
2019-04-22T16:35:24.472Z,17.66
2019-04-22T16:37:31.423Z,17.89
2019-04-22T16:39:42.074Z,17.95
2019-04-22T16:41:49.137Z,18.09
2019-04-22T16:43:58.697Z,18.22
2019-04-22T16:46:07.519Z,18.23
2019-04-22T16:48:13.888Z,18.33
2019-04-22T16:50:21.105Z,18.33
2019-04-22T16:52:28.095Z,18.47
2019-04-22T16:54:34.968Z,18.46
2019-04-22T16:56:41.775Z,18.54
2019-04-22T16:58:48.641Z,18.51
2019-04-22T17:00:56.520Z,18.44
2019-04-22T17:03:18.450Z,18.32
2019-04-22T17:05:43.394Z,18.33
2019-04-22T17:07:50.062Z,18.16
2019-04-22T17:09:57.595Z,18.18
2019-04-22T17:12:05.979Z,18.07
2019-04-22T17:14:13.287Z,17.87
2019-04-22T17:16:20.923Z,17.62
2019-04-22T17:18:27.458Z,17.35
2019-04-22T17:20:34.134Z,17.08
2019-04-22T17:22:41.878Z,16.81
2019-04-22T17:24:49.815Z,16.60
2019-04-22T17:26:56.805Z,16.45
2019-04-22T17:29:06.347Z,16.34
2019-04-22T17:31:12.989Z,16.23
2019-04-22T17:33:20.844Z,16.12
2019-04-22T17:35:28.350Z,16.04
2019-04-22T17:37:37.313Z,15.99
2019-04-22T17:39:52.588Z,15.94
2019-04-22T17:42:11.253Z,15.86
2019-04-22T17:44:31.215Z,15.75
2019-04-22T17:48:53.557Z,15.64
2019-04-22T17:51:14.501Z,15.59
2019-04-22T17:53:24.900Z,15.53
2019-04-22T17:55:21.396Z,15.46
2019-04-22T17:57:27.854Z,15.38
2019-04-22T17:59:32.764Z,15.37
2019-04-22T18:01:43.842Z,15.31
2019-04-22T18:03:40.775Z,15.22
2019-04-22T18:05:48.027Z,15.15
2019-04-22T18:08:10.056Z,15.10
2019-04-22T18:16:52.104Z,14.95
2019-04-22T18:19:00.742Z,14.94
2019-04-22T18:21:02.147Z,14.92
2019-04-22T18:23:05.368Z,14.89
2019-04-22T18:25:14.037Z,14.91
2019-04-22T18:29:37.417Z,14.79
2019-04-22T18:31:41.255Z,14.69
2019-04-22T18:33:50.192Z,14.62
2019-04-22T18:36:05.243Z,14.53
2019-04-22T18:38:27.143Z,14.49
2019-04-22T18:40:18.145Z,14.40
2019-04-22T18:42:25.681Z,14.41
2019-04-22T18:44:39.858Z,14.43
2019-04-22T18:46:51.157Z,14.36
2019-04-22T18:48:55.971Z,14.33
2019-04-22T18:51:17.170Z,14.33
2019-04-22T18:53:27.347Z,14.29
2019-04-22T18:55:33.909Z,14.26
2019-04-22T18:57:59.094Z,14.20
2019-04-22T18:59:55.535Z,14.16
2019-04-22T19:02:05.339Z,14.11
2019-04-22T19:04:14.198Z,14.07
2019-04-22T19:06:47.407Z,13.96
2019-04-22T19:08:50.163Z,13.89
2019-04-22T19:11:04.978Z,13.87
2019-04-22T19:13:37.645Z,13.82
2019-04-22T19:15:19.070Z,13.77
2019-04-22T19:17:35.144Z,13.69
2019-04-22T19:19:33.371Z,13.68
2019-04-22T19:21:39.357Z,13.65
2019-04-22T19:23:49.104Z,13.62
2019-04-22T19:25:55.358Z,13.59
2019-04-22T19:28:15.771Z,13.58
2019-04-22T19:30:16.360Z,13.51
2019-04-22T19:32:23.025Z,13.51
2019-04-22T19:34:32.113Z,13.51
2019-04-22T19:36:46.892Z,13.43
2019-04-22T19:38:57.083Z,13.36
2019-04-22T19:41:13.559Z,13.29
2019-04-22T19:43:20.474Z,13.26
2019-04-22T19:45:26.548Z,13.27
2019-04-22T19:47:41.880Z,13.21
2019-04-22T19:49:57.947Z,13.17
2019-04-22T19:52:12.902Z,13.21
2019-04-22T19:54:14.099Z,13.21
2019-04-22T19:56:17.589Z,13.17
2019-04-22T19:58:36.044Z,13.11
2019-04-22T20:01:02.540Z,13.03
2019-04-22T20:03:48.257Z,12.92
2019-04-22T20:05:53.086Z,12.84
2019-04-22T20:08:07.301Z,12.86
2019-04-22T20:10:16.207Z,12.87
2019-04-22T20:12:20.592Z,12.82
2019-04-22T20:14:35.842Z,12.81
2019-04-22T20:16:42.828Z,12.76
2019-04-22T20:18:56.579Z,12.72
2019-04-22T20:21:03.715Z,12.65
2019-04-22T20:23:10.480Z,12.60
2019-04-22T20:25:16.539Z,12.54
2019-04-22T20:27:39.293Z,12.47
2019-04-22T20:29:54.090Z,12.43
2019-04-22T20:31:59.184Z,12.38
2019-04-22T20:34:16.174Z,12.34
2019-04-22T20:36:26.735Z,12.28
2019-04-22T20:38:28.486Z,12.26
2019-04-22T20:40:33.194Z,12.24
2019-04-22T20:42:48.938Z,12.19
2019-04-22T20:44:52.278Z,12.10
2019-04-22T20:46:56.250Z,12.06
2019-04-22T20:49:11.694Z,11.99
2019-04-22T20:51:17.249Z,11.96
2019-04-22T20:53:29.972Z,11.91
2019-04-22T20:55:32.602Z,11.88
2019-04-22T20:57:47.753Z,11.88
2019-04-22T20:59:48.173Z,11.77
2019-04-22T21:01:56.432Z,11.72
2019-04-22T21:03:53.525Z,11.64
2019-04-22T21:06:11.644Z,11.64
2019-04-22T21:08:24.160Z,11.62
2019-04-22T21:10:23.132Z,11.62
2019-04-22T21:12:30.317Z,11.60
2019-04-22T21:14:46.119Z,11.54
2019-04-22T21:16:56.304Z,11.52
2019-04-22T21:19:04.398Z,11.48
2019-04-22T21:21:13.561Z,11.43
2019-04-22T21:23:20.642Z,11.38
2019-04-22T21:25:20.885Z,11.32
2019-04-22T21:27:40.628Z,11.29
2019-04-22T21:29:37.602Z,11.33
2019-04-22T21:31:54.837Z,11.24
2019-04-22T21:33:59.432Z,11.27
2019-04-22T21:36:16.845Z,11.29
2019-04-22T21:38:21.307Z,11.29
2019-04-22T21:40:28.779Z,11.30
2019-04-22T21:42:38.326Z,11.34
2019-04-22T21:44:42.605Z,11.31
2019-04-22T21:46:57.818Z,11.26
2019-04-22T21:48:59.834Z,11.26
2019-04-22T21:51:16.528Z,11.22
2019-04-22T21:53:25.514Z,11.16
2019-04-22T21:55:30.776Z,11.20
2019-04-22T21:57:53.840Z,11.19
2019-04-22T21:59:52.150Z,11.17
2019-04-22T22:02:05.642Z,11.14
2019-04-22T22:04:12.749Z,11.06
2019-04-22T22:06:06.272Z,11.02
2019-04-22T22:08:27.320Z,11.05
2019-04-22T22:10:33.934Z,11.06
2019-04-22T22:12:42.646Z,10.98
2019-04-22T22:14:51.557Z,10.97
2019-04-22T22:16:50.467Z,10.94
2019-04-22T22:19:06.701Z,10.93
2019-04-22T22:21:38.521Z,10.89
2019-04-22T22:23:26.869Z,10.83
2019-04-22T22:25:28.073Z,10.74
2019-04-22T22:27:37.512Z,10.72
2019-04-22T22:29:58.580Z,10.67
2019-04-22T22:31:58.407Z,10.70
2019-04-22T22:34:09.727Z,10.63
2019-04-22T22:36:13.637Z,10.61
2019-04-22T22:38:24.371Z,10.54
2019-04-22T22:40:18.253Z,10.52
2019-04-22T22:42:28.840Z,10.47
2019-04-22T22:44:36.443Z,10.49
2019-04-22T22:46:56.326Z,10.47
2019-04-22T22:49:09.888Z,10.41
2019-04-22T22:51:23.162Z,10.42
2019-04-22T22:53:34.032Z,10.38
2019-04-22T22:55:37.125Z,10.34
2019-04-22T22:57:48.243Z,10.28
2019-04-22T22:59:50.142Z,10.25
2019-04-22T23:02:01.367Z,10.23
2019-04-22T23:04:18.038Z,10.21
2019-04-22T23:06:27.590Z,10.20
2019-04-22T23:08:44.682Z,10.13
2019-04-22T23:10:44.040Z,10.14
2019-04-22T23:12:48.433Z,10.12
2019-04-22T23:14:49.759Z,10.14
2019-04-22T23:16:47.410Z,10.16
2019-04-22T23:19:06.856Z,10.15
2019-04-22T23:21:19.558Z,10.12
2019-04-22T23:23:39.552Z,10.10
2019-04-22T23:25:54.777Z,10.07
2019-04-22T23:28:04.068Z,10.02
2019-04-22T23:30:06.688Z,10.06
2019-04-22T23:32:21.199Z,10.04
2019-04-22T23:34:32.919Z,10.00
2019-04-22T23:36:47.089Z,10.00
2019-04-22T23:38:56.644Z,9.96
2019-04-22T23:41:05.439Z,9.92
2019-04-22T23:43:17.293Z,9.88
2019-04-22T23:45:21.391Z,9.84
2019-04-22T23:47:23.843Z,9.81
2019-04-22T23:49:36.253Z,9.78
2019-04-22T23:51:58.093Z,9.76
2019-04-22T23:54:10.590Z,9.79
2019-04-22T23:56:04.342Z,9.80
2019-04-22T23:58:19.249Z,9.79
